sensor_id;sensor_type;location;lat;lon;timestamp;pressure;altitude;pressure_sealevel;temperature
63220;BMP180;49320;52.512;13.448;2023-09-19T00:01:00;100190.00;;;25.50
63220;BMP180;49320;52.512;13.448;2023-09-19T00:03:27;100196.00;;;25.50
63220;BMP180;49320;52.512;13.448;2023-09-19T00:05:57;100199.00;;;25.50
63220;BMP180;49320;52.512;13.448;2023-09-19T00:08:24;100200.00;;;25.50
63220;BMP180;49320;52.512;13.448;2023-09-19T00:10:51;100194.00;;;25.40
63220;BMP180;49320;52.512;13.448;2023-09-19T00:13:19;100193.00;;;25.40
63220;BMP180;49320;52.512;13.448;2023-09-19T00:15:48;100194.00;;;25.40
63220;BMP180;49320;52.512;13.448;2023-09-19T00:18:20;100192.00;;;25.40
63220;BMP180;49320;52.512;13.448;2023-09-19T00:20:58;100195.00;;;25.40
63220;BMP180;49320;52.512;13.448;2023-09-19T00:23:25;100185.00;;;25.30
63220;BMP180;49320;52.512;13.448;2023-09-19T00:25:52;100184.00;;;25.30
63220;BMP180;49320;52.512;13.448;2023-09-19T00:28:23;100179.00;;;25.30
63220;BMP180;49320;52.512;13.448;2023-09-19T00:30:50;100179.00;;;25.20
63220;BMP180;49320;52.512;13.448;2023-09-19T00:33:18;100174.00;;;25.20
63220;BMP180;49320;52.512;13.448;2023-09-19T00:35:51;100190.00;;;25.20
63220;BMP180;49320;52.512;13.448;2023-09-19T00:38:19;100182.00;;;25.20
63220;BMP180;49320;52.512;13.448;2023-09-19T00:40:54;100181.00;;;25.10
63220;BMP180;49320;52.512;13.448;2023-09-19T00:43:26;100179.00;;;25.10
63220;BMP180;49320;52.512;13.448;2023-09-19T00:45:56;100182.00;;;25.10
63220;BMP180;49320;52.512;13.448;2023-09-19T00:48:25;100182.00;;;25.10
63220;BMP180;49320;52.512;13.448;2023-09-19T00:50:57;100175.00;;;25.10
63220;BMP180;49320;52.512;13.448;2023-09-19T00:53:25;100181.00;;;25.10
63220;BMP180;49320;52.512;13.448;2023-09-19T00:55:54;100184.00;;;25.10
63220;BMP180;49320;52.512;13.448;2023-09-19T00:58:22;100185.00;;;25.00
63220;BMP180;49320;52.512;13.448;2023-09-19T01:00:50;100180.00;;;25.00
63220;BMP180;49320;52.512;13.448;2023-09-19T01:03:17;100182.00;;;25.00
63220;BMP180;49320;52.512;13.448;2023-09-19T01:05:45;100186.00;;;25.00
63220;BMP180;49320;52.512;13.448;2023-09-19T01:08:12;100194.00;;;25.00
63220;BMP180;49320;52.512;13.448;2023-09-19T01:10:52;100183.00;;;25.00
63220;BMP180;49320;52.512;13.448;2023-09-19T01:13:47;100177.00;;;25.00
63220;BMP180;49320;52.512;13.448;2023-09-19T01:16:36;100176.00;;;24.90
63220;BMP180;49320;52.512;13.448;2023-09-19T01:22:57;100188.00;;;24.90
63220;BMP180;49320;52.512;13.448;2023-09-19T01:26:06;100181.00;;;24.90
63220;BMP180;49320;52.512;13.448;2023-09-19T01:31:24;100190.00;;;24.80
63220;BMP180;49320;52.512;13.448;2023-09-19T01:34:01;100184.00;;;24.80
63220;BMP180;49320;52.512;13.448;2023-09-19T01:36:34;100182.00;;;24.80
63220;BMP180;49320;52.512;13.448;2023-09-19T01:39:10;100183.00;;;24.90
63220;BMP180;49320;52.512;13.448;2023-09-19T01:45:03;100190.00;;;24.90
63220;BMP180;49320;52.512;13.448;2023-09-19T01:47:42;100189.00;;;24.90
63220;BMP180;49320;52.512;13.448;2023-09-19T01:50:34;100194.00;;;24.90
63220;BMP180;49320;52.512;13.448;2023-09-19T01:53:45;100191.00;;;24.90
63220;BMP180;49320;52.512;13.448;2023-09-19T01:56:57;100197.00;;;25.00
63220;BMP180;49320;52.512;13.448;2023-09-19T01:59:37;100187.00;;;25.00
63220;BMP180;49320;52.512;13.448;2023-09-19T02:02:06;100196.00;;;24.90
63220;BMP180;49320;52.512;13.448;2023-09-19T02:04:35;100190.00;;;24.90
63220;BMP180;49320;52.512;13.448;2023-09-19T02:07:03;100198.00;;;24.90
63220;BMP180;49320;52.512;13.448;2023-09-19T02:09:32;100199.00;;;24.90
63220;BMP180;49320;52.512;13.448;2023-09-19T02:12:02;100209.00;;;24.90
63220;BMP180;49320;52.512;13.448;2023-09-19T02:14:30;100210.00;;;24.90
63220;BMP180;49320;52.512;13.448;2023-09-19T02:16:57;100206.00;;;24.80
63220;BMP180;49320;52.512;13.448;2023-09-19T02:19:24;100210.00;;;24.80
63220;BMP180;49320;52.512;13.448;2023-09-19T02:21:51;100213.00;;;24.80
63220;BMP180;49320;52.512;13.448;2023-09-19T02:24:19;100219.00;;;24.80
63220;BMP180;49320;52.512;13.448;2023-09-19T02:26:46;100221.00;;;24.70
63220;BMP180;49320;52.512;13.448;2023-09-19T02:29:13;100226.00;;;24.70
63220;BMP180;49320;52.512;13.448;2023-09-19T02:31:40;100226.00;;;24.70
63220;BMP180;49320;52.512;13.448;2023-09-19T02:34:08;100225.00;;;24.70
63220;BMP180;49320;52.512;13.448;2023-09-19T02:36:36;100228.00;;;24.70
63220;BMP180;49320;52.512;13.448;2023-09-19T02:39:03;100228.00;;;24.70
63220;BMP180;49320;52.512;13.448;2023-09-19T02:41:32;100233.00;;;24.70
63220;BMP180;49320;52.512;13.448;2023-09-19T02:43:59;100234.00;;;24.60
63220;BMP180;49320;52.512;13.448;2023-09-19T02:46:27;100232.00;;;24.60
63220;BMP180;49320;52.512;13.448;2023-09-19T02:48:54;100238.00;;;24.60
63220;BMP180;49320;52.512;13.448;2023-09-19T02:51:21;100236.00;;;24.60
63220;BMP180;49320;52.512;13.448;2023-09-19T02:53:50;100238.00;;;24.50
63220;BMP180;49320;52.512;13.448;2023-09-19T02:56:19;100233.00;;;24.50
63220;BMP180;49320;52.512;13.448;2023-09-19T02:58:46;100241.00;;;24.50
63220;BMP180;49320;52.512;13.448;2023-09-19T03:01:12;100239.00;;;24.50
63220;BMP180;49320;52.512;13.448;2023-09-19T03:03:40;100239.00;;;24.50
63220;BMP180;49320;52.512;13.448;2023-09-19T03:06:07;100245.00;;;24.50
63220;BMP180;49320;52.512;13.448;2023-09-19T03:08:36;100248.00;;;24.50
63220;BMP180;49320;52.512;13.448;2023-09-19T03:11:06;100257.00;;;24.50
63220;BMP180;49320;52.512;13.448;2023-09-19T03:13:34;100253.00;;;24.40
63220;BMP180;49320;52.512;13.448;2023-09-19T03:16:04;100246.00;;;24.40
63220;BMP180;49320;52.512;13.448;2023-09-19T03:18:34;100251.00;;;24.40
63220;BMP180;49320;52.512;13.448;2023-09-19T03:21:01;100242.00;;;24.40
63220;BMP180;49320;52.512;13.448;2023-09-19T03:23:29;100250.00;;;24.40
63220;BMP180;49320;52.512;13.448;2023-09-19T03:25:56;100255.00;;;24.40
63220;BMP180;49320;52.512;13.448;2023-09-19T03:28:23;100268.00;;;24.40
63220;BMP180;49320;52.512;13.448;2023-09-19T03:31:04;100261.00;;;24.40
63220;BMP180;49320;52.512;13.448;2023-09-19T03:33:32;100267.00;;;24.40
63220;BMP180;49320;52.512;13.448;2023-09-19T03:36:04;100264.00;;;24.40
63220;BMP180;49320;52.512;13.448;2023-09-19T03:38:34;100268.00;;;24.40
63220;BMP180;49320;52.512;13.448;2023-09-19T03:41:02;100276.00;;;24.40
63220;BMP180;49320;52.512;13.448;2023-09-19T03:43:29;100276.00;;;24.40
63220;BMP180;49320;52.512;13.448;2023-09-19T03:45:56;100275.00;;;24.40
63220;BMP180;49320;52.512;13.448;2023-09-19T03:48:24;100275.00;;;24.40
63220;BMP180;49320;52.512;13.448;2023-09-19T03:50:51;100269.00;;;24.40
63220;BMP180;49320;52.512;13.448;2023-09-19T03:53:19;100279.00;;;24.40
63220;BMP180;49320;52.512;13.448;2023-09-19T03:55:46;100277.00;;;24.40
63220;BMP180;49320;52.512;13.448;2023-09-19T03:58:13;100275.00;;;24.40
63220;BMP180;49320;52.512;13.448;2023-09-19T04:00:40;100291.00;;;24.40
63220;BMP180;49320;52.512;13.448;2023-09-19T04:03:08;100288.00;;;24.40
63220;BMP180;49320;52.512;13.448;2023-09-19T04:05:35;100289.00;;;24.40
63220;BMP180;49320;52.512;13.448;2023-09-19T04:08:02;100282.00;;;24.40
63220;BMP180;49320;52.512;13.448;2023-09-19T04:10:29;100292.00;;;24.40
63220;BMP180;49320;52.512;13.448;2023-09-19T04:12:56;100284.00;;;24.40
63220;BMP180;49320;52.512;13.448;2023-09-19T04:15:24;100286.00;;;24.40
63220;BMP180;49320;52.512;13.448;2023-09-19T04:17:51;100297.00;;;24.40
63220;BMP180;49320;52.512;13.448;2023-09-19T04:20:19;100288.00;;;24.30
63220;BMP180;49320;52.512;13.448;2023-09-19T04:22:46;100299.00;;;24.30
63220;BMP180;49320;52.512;13.448;2023-09-19T04:25:14;100295.00;;;24.30
63220;BMP180;49320;52.512;13.448;2023-09-19T04:27:41;100294.00;;;24.30
63220;BMP180;49320;52.512;13.448;2023-09-19T04:30:08;100300.00;;;24.30
63220;BMP180;49320;52.512;13.448;2023-09-19T04:32:38;100296.00;;;24.20
63220;BMP180;49320;52.512;13.448;2023-09-19T04:35:10;100312.00;;;24.20
63220;BMP180;49320;52.512;13.448;2023-09-19T04:37:40;100301.00;;;24.20
63220;BMP180;49320;52.512;13.448;2023-09-19T04:40:10;100312.00;;;24.20
63220;BMP180;49320;52.512;13.448;2023-09-19T04:42:41;100316.00;;;24.20
63220;BMP180;49320;52.512;13.448;2023-09-19T04:45:10;100317.00;;;24.20
63220;BMP180;49320;52.512;13.448;2023-09-19T04:47:38;100321.00;;;24.20
63220;BMP180;49320;52.512;13.448;2023-09-19T04:50:09;100324.00;;;24.20
63220;BMP180;49320;52.512;13.448;2023-09-19T04:52:44;100331.00;;;24.20
63220;BMP180;49320;52.512;13.448;2023-09-19T04:55:13;100317.00;;;24.20
63220;BMP180;49320;52.512;13.448;2023-09-19T04:57:51;100318.00;;;24.20
63220;BMP180;49320;52.512;13.448;2023-09-19T05:00:21;100336.00;;;24.20
63220;BMP180;49320;52.512;13.448;2023-09-19T05:02:52;100335.00;;;24.10
63220;BMP180;49320;52.512;13.448;2023-09-19T05:05:19;100335.00;;;24.20
63220;BMP180;49320;52.512;13.448;2023-09-19T05:07:46;100335.00;;;24.20
63220;BMP180;49320;52.512;13.448;2023-09-19T05:10:14;100336.00;;;24.10
63220;BMP180;49320;52.512;13.448;2023-09-19T05:12:41;100353.00;;;24.10
63220;BMP180;49320;52.512;13.448;2023-09-19T05:15:08;100359.00;;;24.10
63220;BMP180;49320;52.512;13.448;2023-09-19T05:17:36;100361.00;;;24.10
63220;BMP180;49320;52.512;13.448;2023-09-19T05:20:03;100355.00;;;24.10
63220;BMP180;49320;52.512;13.448;2023-09-19T05:23:05;100364.00;;;24.10
63220;BMP180;49320;52.512;13.448;2023-09-19T05:25:36;100372.00;;;24.00
63220;BMP180;49320;52.512;13.448;2023-09-19T05:28:09;100373.00;;;24.00
63220;BMP180;49320;52.512;13.448;2023-09-19T05:30:37;100373.00;;;24.00
63220;BMP180;49320;52.512;13.448;2023-09-19T05:33:05;100367.00;;;24.00
63220;BMP180;49320;52.512;13.448;2023-09-19T05:35:33;100379.00;;;24.00
63220;BMP180;49320;52.512;13.448;2023-09-19T05:37:59;100383.00;;;24.00
63220;BMP180;49320;52.512;13.448;2023-09-19T05:40:26;100383.00;;;24.00
63220;BMP180;49320;52.512;13.448;2023-09-19T05:42:54;100393.00;;;24.00
63220;BMP180;49320;52.512;13.448;2023-09-19T05:45:20;100398.00;;;24.00
63220;BMP180;49320;52.512;13.448;2023-09-19T05:47:52;100397.00;;;24.00
63220;BMP180;49320;52.512;13.448;2023-09-19T05:50:23;100396.00;;;23.90
63220;BMP180;49320;52.512;13.448;2023-09-19T05:52:54;100408.00;;;24.00
63220;BMP180;49320;52.512;13.448;2023-09-19T05:55:23;100406.00;;;23.90
63220;BMP180;49320;52.512;13.448;2023-09-19T05:57:52;100417.00;;;24.00
63220;BMP180;49320;52.512;13.448;2023-09-19T06:00:21;100418.00;;;24.00
63220;BMP180;49320;52.512;13.448;2023-09-19T06:02:55;100428.00;;;24.00
63220;BMP180;49320;52.512;13.448;2023-09-19T06:05:25;100427.00;;;24.00
63220;BMP180;49320;52.512;13.448;2023-09-19T06:07:54;100431.00;;;24.00
63220;BMP180;49320;52.512;13.448;2023-09-19T06:10:21;100437.00;;;24.00
63220;BMP180;49320;52.512;13.448;2023-09-19T06:12:49;100441.00;;;24.10
63220;BMP180;49320;52.512;13.448;2023-09-19T06:15:17;100442.00;;;24.10
63220;BMP180;49320;52.512;13.448;2023-09-19T06:17:50;100451.00;;;24.10
63220;BMP180;49320;52.512;13.448;2023-09-19T06:20:18;100445.00;;;24.10
63220;BMP180;49320;52.512;13.448;2023-09-19T06:22:47;100454.00;;;24.20
63220;BMP180;49320;52.512;13.448;2023-09-19T06:25:15;100465.00;;;24.20
63220;BMP180;49320;52.512;13.448;2023-09-19T06:27:51;100460.00;;;24.20
63220;BMP180;49320;52.512;13.448;2023-09-19T06:30:24;100463.00;;;24.20
63220;BMP180;49320;52.512;13.448;2023-09-19T06:32:56;100458.00;;;24.30
63220;BMP180;49320;52.512;13.448;2023-09-19T06:35:25;100458.00;;;24.30
63220;BMP180;49320;52.512;13.448;2023-09-19T06:37:53;100461.00;;;24.30
63220;BMP180;49320;52.512;13.448;2023-09-19T06:40:20;100462.00;;;24.30
63220;BMP180;49320;52.512;13.448;2023-09-19T06:42:51;100465.00;;;24.40
63220;BMP180;49320;52.512;13.448;2023-09-19T06:45:19;100472.00;;;24.40
63220;BMP180;49320;52.512;13.448;2023-09-19T06:47:51;100471.00;;;24.50
63220;BMP180;49320;52.512;13.448;2023-09-19T06:50:21;100475.00;;;24.60
63220;BMP180;49320;52.512;13.448;2023-09-19T06:52:55;100477.00;;;24.70
63220;BMP180;49320;52.512;13.448;2023-09-19T06:55:25;100477.00;;;24.70
63220;BMP180;49320;52.512;13.448;2023-09-19T06:57:54;100481.00;;;24.80
63220;BMP180;49320;52.512;13.448;2023-09-19T07:00:21;100473.00;;;24.80
63220;BMP180;49320;52.512;13.448;2023-09-19T07:03:05;100479.00;;;24.90
63220;BMP180;49320;52.512;13.448;2023-09-19T07:05:38;100464.00;;;25.00
63220;BMP180;49320;52.512;13.448;2023-09-19T07:08:08;100474.00;;;25.10
63220;BMP180;49320;52.512;13.448;2023-09-19T07:10:38;100477.00;;;25.20
63220;BMP180;49320;52.512;13.448;2023-09-19T07:13:08;100490.00;;;25.40
63220;BMP180;49320;52.512;13.448;2023-09-19T07:15:39;100490.00;;;25.50
63220;BMP180;49320;52.512;13.448;2023-09-19T07:18:08;100495.00;;;25.60
63220;BMP180;49320;52.512;13.448;2023-09-19T07:20:38;100497.00;;;25.70
63220;BMP180;49320;52.512;13.448;2023-09-19T07:23:06;100495.00;;;25.90
63220;BMP180;49320;52.512;13.448;2023-09-19T07:25:35;100506.00;;;26.00
63220;BMP180;49320;52.512;13.448;2023-09-19T07:28:02;100494.00;;;26.10
63220;BMP180;49320;52.512;13.448;2023-09-19T07:30:29;100506.00;;;26.20
63220;BMP180;49320;52.512;13.448;2023-09-19T07:32:56;100510.00;;;26.20
63220;BMP180;49320;52.512;13.448;2023-09-19T07:35:24;100503.00;;;26.20
63220;BMP180;49320;52.512;13.448;2023-09-19T07:37:52;100510.00;;;26.30
63220;BMP180;49320;52.512;13.448;2023-09-19T07:40:19;100515.00;;;26.30
63220;BMP180;49320;52.512;13.448;2023-09-19T07:42:47;100509.00;;;26.40
63220;BMP180;49320;52.512;13.448;2023-09-19T07:45:14;100512.00;;;26.40
63220;BMP180;49320;52.512;13.448;2023-09-19T07:47:47;100514.00;;;26.50
63220;BMP180;49320;52.512;13.448;2023-09-19T07:50:16;100519.00;;;26.50
63220;BMP180;49320;52.512;13.448;2023-09-19T07:52:47;100529.00;;;26.50
63220;BMP180;49320;52.512;13.448;2023-09-19T07:55:16;100530.00;;;26.60
63220;BMP180;49320;52.512;13.448;2023-09-19T07:57:43;100541.00;;;26.60
63220;BMP180;49320;52.512;13.448;2023-09-19T08:00:11;100548.00;;;26.70
63220;BMP180;49320;52.512;13.448;2023-09-19T08:02:39;100561.00;;;26.70
63220;BMP180;49320;52.512;13.448;2023-09-19T08:05:09;100559.00;;;26.80
63220;BMP180;49320;52.512;13.448;2023-09-19T08:07:41;100570.00;;;26.80
63220;BMP180;49320;52.512;13.448;2023-09-19T08:10:09;100545.00;;;26.80
63220;BMP180;49320;52.512;13.448;2023-09-19T08:12:43;100549.00;;;26.80
63220;BMP180;49320;52.512;13.448;2023-09-19T08:15:18;100557.00;;;26.80
63220;BMP180;49320;52.512;13.448;2023-09-19T08:17:47;100546.00;;;26.70
63220;BMP180;49320;52.512;13.448;2023-09-19T08:20:15;100544.00;;;26.60
63220;BMP180;49320;52.512;13.448;2023-09-19T08:22:50;100549.00;;;26.60
63220;BMP180;49320;52.512;13.448;2023-09-19T08:25:19;100549.00;;;26.60
63220;BMP180;49320;52.512;13.448;2023-09-19T08:27:48;100554.00;;;26.50
63220;BMP180;49320;52.512;13.448;2023-09-19T08:30:21;100558.00;;;26.50
63220;BMP180;49320;52.512;13.448;2023-09-19T08:33:01;100559.00;;;26.50
63220;BMP180;49320;52.512;13.448;2023-09-19T08:35:34;100554.00;;;26.50
63220;BMP180;49320;52.512;13.448;2023-09-19T08:38:01;100559.00;;;26.40
63220;BMP180;49320;52.512;13.448;2023-09-19T08:40:31;100568.00;;;26.40
63220;BMP180;49320;52.512;13.448;2023-09-19T08:43:00;100567.00;;;26.30
63220;BMP180;49320;52.512;13.448;2023-09-19T08:45:27;100569.00;;;26.20
63220;BMP180;49320;52.512;13.448;2023-09-19T08:48:22;100573.00;;;26.20
63220;BMP180;49320;52.512;13.448;2023-09-19T08:51:03;100562.00;;;26.10
63220;BMP180;49320;52.512;13.448;2023-09-19T08:53:46;100573.00;;;26.10
63220;BMP180;49320;52.512;13.448;2023-09-19T08:56:19;100569.00;;;26.00
63220;BMP180;49320;52.512;13.448;2023-09-19T08:59:00;100580.00;;;26.00
63220;BMP180;49320;52.512;13.448;2023-09-19T09:01:29;100570.00;;;25.90
63220;BMP180;49320;52.512;13.448;2023-09-19T09:04:01;100567.00;;;25.90
63220;BMP180;49320;52.512;13.448;2023-09-19T09:06:31;100595.00;;;25.90
63220;BMP180;49320;52.512;13.448;2023-09-19T09:08:59;100597.00;;;25.90
63220;BMP180;49320;52.512;13.448;2023-09-19T09:11:28;100587.00;;;25.80
63220;BMP180;49320;52.512;13.448;2023-09-19T09:13:55;100590.00;;;25.80
63220;BMP180;49320;52.512;13.448;2023-09-19T09:16:22;100600.00;;;25.80
63220;BMP180;49320;52.512;13.448;2023-09-19T09:18:53;100590.00;;;25.80
63220;BMP180;49320;52.512;13.448;2023-09-19T09:21:25;100600.00;;;25.80
63220;BMP180;49320;52.512;13.448;2023-09-19T09:23:52;100607.00;;;25.80
63220;BMP180;49320;52.512;13.448;2023-09-19T09:29:06;100592.00;;;26.00
63220;BMP180;49320;52.512;13.448;2023-09-19T09:31:33;100591.00;;;26.00
63220;BMP180;49320;52.512;13.448;2023-09-19T09:34:00;100601.00;;;26.10
63220;BMP180;49320;52.512;13.448;2023-09-19T09:36:38;100606.00;;;26.10
63220;BMP180;49320;52.512;13.448;2023-09-19T09:39:06;100601.00;;;26.00
63220;BMP180;49320;52.512;13.448;2023-09-19T09:41:43;100597.00;;;26.00
63220;BMP180;49320;52.512;13.448;2023-09-19T09:44:16;100603.00;;;26.10
63220;BMP180;49320;52.512;13.448;2023-09-19T09:46:48;100609.00;;;26.10
63220;BMP180;49320;52.512;13.448;2023-09-19T09:49:27;100604.00;;;26.20
63220;BMP180;49320;52.512;13.448;2023-09-19T09:52:06;100601.00;;;26.10
63220;BMP180;49320;52.512;13.448;2023-09-19T09:55:03;100604.00;;;26.10
63220;BMP180;49320;52.512;13.448;2023-09-19T09:57:34;100605.00;;;26.00
63220;BMP180;49320;52.512;13.448;2023-09-19T10:00:03;100603.00;;;26.00
63220;BMP180;49320;52.512;13.448;2023-09-19T10:02:39;100606.00;;;26.00
63220;BMP180;49320;52.512;13.448;2023-09-19T10:05:17;100609.00;;;26.10
63220;BMP180;49320;52.512;13.448;2023-09-19T10:07:51;100619.00;;;26.20
63220;BMP180;49320;52.512;13.448;2023-09-19T10:13:14;100618.00;;;26.30
63220;BMP180;49320;52.512;13.448;2023-09-19T10:15:51;100615.00;;;26.30
63220;BMP180;49320;52.512;13.448;2023-09-19T10:18:43;100621.00;;;26.40
63220;BMP180;49320;52.512;13.448;2023-09-19T10:21:11;100626.00;;;26.40
63220;BMP180;49320;52.512;13.448;2023-09-19T10:23:40;100624.00;;;26.40
63220;BMP180;49320;52.512;13.448;2023-09-19T10:26:09;100616.00;;;26.50
63220;BMP180;49320;52.512;13.448;2023-09-19T10:28:38;100616.00;;;26.60
63220;BMP180;49320;52.512;13.448;2023-09-19T10:31:07;100617.00;;;26.70
63220;BMP180;49320;52.512;13.448;2023-09-19T10:33:37;100625.00;;;26.70
63220;BMP180;49320;52.512;13.448;2023-09-19T10:36:05;100607.00;;;26.80
63220;BMP180;49320;52.512;13.448;2023-09-19T10:38:35;100618.00;;;26.80
63220;BMP180;49320;52.512;13.448;2023-09-19T10:41:05;100616.00;;;26.90
63220;BMP180;49320;52.512;13.448;2023-09-19T10:43:33;100608.00;;;27.00
63220;BMP180;49320;52.512;13.448;2023-09-19T10:46:07;100618.00;;;27.00
63220;BMP180;49320;52.512;13.448;2023-09-19T10:48:39;100613.00;;;27.10
63220;BMP180;49320;52.512;13.448;2023-09-19T10:51:22;100622.00;;;27.10
63220;BMP180;49320;52.512;13.448;2023-09-19T10:53:56;100620.00;;;27.10
63220;BMP180;49320;52.512;13.448;2023-09-19T10:56:36;100612.00;;;27.20
63220;BMP180;49320;52.512;13.448;2023-09-19T10:59:11;100618.00;;;27.20
63220;BMP180;49320;52.512;13.448;2023-09-19T11:01:51;100622.00;;;27.20
63220;BMP180;49320;52.512;13.448;2023-09-19T11:04:32;100619.00;;;27.20
63220;BMP180;49320;52.512;13.448;2023-09-19T11:07:05;100629.00;;;27.10
63220;BMP180;49320;52.512;13.448;2023-09-19T11:09:51;100622.00;;;27.10
63220;BMP180;49320;52.512;13.448;2023-09-19T11:15:08;100610.00;;;27.20
63220;BMP180;49320;52.512;13.448;2023-09-19T11:17:38;100621.00;;;27.20
63220;BMP180;49320;52.512;13.448;2023-09-19T11:30:45;100625.00;;;27.60
63220;BMP180;49320;52.512;13.448;2023-09-19T11:36:09;100628.00;;;27.80
63220;BMP180;49320;52.512;13.448;2023-09-19T11:43:54;100636.00;;;28.00
63220;BMP180;49320;52.512;13.448;2023-09-19T11:46:27;100628.00;;;28.00
63220;BMP180;49320;52.512;13.448;2023-09-19T11:49:05;100637.00;;;28.10
63220;BMP180;49320;52.512;13.448;2023-09-19T11:51:43;100634.00;;;28.10
63220;BMP180;49320;52.512;13.448;2023-09-19T11:54:14;100629.00;;;28.10
63220;BMP180;49320;52.512;13.448;2023-09-19T11:56:55;100631.00;;;28.10
63220;BMP180;49320;52.512;13.448;2023-09-19T11:59:27;100633.00;;;28.10
63220;BMP180;49320;52.512;13.448;2023-09-19T12:02:04;100625.00;;;28.10
63220;BMP180;49320;52.512;13.448;2023-09-19T12:04:43;100625.00;;;28.00
63220;BMP180;49320;52.512;13.448;2023-09-19T12:07:13;100628.00;;;28.00
63220;BMP180;49320;52.512;13.448;2023-09-19T12:09:49;100630.00;;;28.00
63220;BMP180;49320;52.512;13.448;2023-09-19T12:12:24;100635.00;;;28.10
63220;BMP180;49320;52.512;13.448;2023-09-19T12:14:54;100630.00;;;28.10
63220;BMP180;49320;52.512;13.448;2023-09-19T12:17:34;100640.00;;;28.20
63220;BMP180;49320;52.512;13.448;2023-09-19T12:20:03;100640.00;;;28.20
63220;BMP180;49320;52.512;13.448;2023-09-19T12:22:44;100640.00;;;28.20
63220;BMP180;49320;52.512;13.448;2023-09-19T12:25:14;100635.00;;;28.20
63220;BMP180;49320;52.512;13.448;2023-09-19T12:27:45;100643.00;;;28.20
63220;BMP180;49320;52.512;13.448;2023-09-19T12:30:16;100638.00;;;28.10
63220;BMP180;49320;52.512;13.448;2023-09-19T12:32:54;100626.00;;;28.10
63220;BMP180;49320;52.512;13.448;2023-09-19T12:35:32;100640.00;;;28.20
63220;BMP180;49320;52.512;13.448;2023-09-19T12:38:03;100641.00;;;28.20
63220;BMP180;49320;52.512;13.448;2023-09-19T12:40:32;100640.00;;;28.20
63220;BMP180;49320;52.512;13.448;2023-09-19T12:43:01;100638.00;;;28.30
63220;BMP180;49320;52.512;13.448;2023-09-19T12:45:32;100644.00;;;28.30
63220;BMP180;49320;52.512;13.448;2023-09-19T12:51:09;100623.00;;;28.20
63220;BMP180;49320;52.512;13.448;2023-09-19T12:56:14;100628.00;;;28.30
63220;BMP180;49320;52.512;13.448;2023-09-19T12:58:57;100631.00;;;28.30
63220;BMP180;49320;52.512;13.448;2023-09-19T13:01:29;100634.00;;;28.30
63220;BMP180;49320;52.512;13.448;2023-09-19T13:04:12;100644.00;;;28.40
63220;BMP180;49320;52.512;13.448;2023-09-19T13:06:42;100640.00;;;28.30
63220;BMP180;49320;52.512;13.448;2023-09-19T13:09:11;100641.00;;;28.40
63220;BMP180;49320;52.512;13.448;2023-09-19T13:11:39;100641.00;;;28.40
63220;BMP180;49320;52.512;13.448;2023-09-19T13:14:25;100633.00;;;28.40
63220;BMP180;49320;52.512;13.448;2023-09-19T13:17:08;100633.00;;;28.30
63220;BMP180;49320;52.512;13.448;2023-09-19T13:19:50;100649.00;;;28.30
63220;BMP180;49320;52.512;13.448;2023-09-19T13:22:45;100641.00;;;28.30
63220;BMP180;49320;52.512;13.448;2023-09-19T13:25:20;100628.00;;;28.30
63220;BMP180;49320;52.512;13.448;2023-09-19T13:27:53;100645.00;;;28.30
63220;BMP180;49320;52.512;13.448;2023-09-19T13:30:24;100639.00;;;28.30
63220;BMP180;49320;52.512;13.448;2023-09-19T13:33:12;100631.00;;;28.40
63220;BMP180;49320;52.512;13.448;2023-09-19T13:35:46;100643.00;;;28.50
63220;BMP180;49320;52.512;13.448;2023-09-19T13:38:14;100634.00;;;28.50
63220;BMP180;49320;52.512;13.448;2023-09-19T13:40:41;100638.00;;;28.50
63220;BMP180;49320;52.512;13.448;2023-09-19T13:43:09;100646.00;;;28.50
63220;BMP180;49320;52.512;13.448;2023-09-19T13:45:35;100629.00;;;28.50
63220;BMP180;49320;52.512;13.448;2023-09-19T13:48:04;100642.00;;;28.50
63220;BMP180;49320;52.512;13.448;2023-09-19T13:50:31;100629.00;;;28.40
63220;BMP180;49320;52.512;13.448;2023-09-19T13:52:58;100640.00;;;28.40
63220;BMP180;49320;52.512;13.448;2023-09-19T13:55:27;100624.00;;;28.40
63220;BMP180;49320;52.512;13.448;2023-09-19T13:57:54;100635.00;;;28.40
63220;BMP180;49320;52.512;13.448;2023-09-19T14:00:23;100633.00;;;28.40
63220;BMP180;49320;52.512;13.448;2023-09-19T14:02:50;100631.00;;;28.40
63220;BMP180;49320;52.512;13.448;2023-09-19T14:05:19;100633.00;;;28.40
63220;BMP180;49320;52.512;13.448;2023-09-19T14:07:47;100617.00;;;28.50
63220;BMP180;49320;52.512;13.448;2023-09-19T14:10:14;100632.00;;;28.50
63220;BMP180;49320;52.512;13.448;2023-09-19T14:12:45;100628.00;;;28.50
63220;BMP180;49320;52.512;13.448;2023-09-19T14:15:12;100620.00;;;28.50
63220;BMP180;49320;52.512;13.448;2023-09-19T14:17:39;100624.00;;;28.50
63220;BMP180;49320;52.512;13.448;2023-09-19T14:20:09;100619.00;;;28.50
63220;BMP180;49320;52.512;13.448;2023-09-19T14:22:37;100627.00;;;28.50
63220;BMP180;49320;52.512;13.448;2023-09-19T14:25:05;100622.00;;;28.40
63220;BMP180;49320;52.512;13.448;2023-09-19T14:27:32;100625.00;;;28.40
63220;BMP180;49320;52.512;13.448;2023-09-19T14:29:58;100627.00;;;28.40
63220;BMP180;49320;52.512;13.448;2023-09-19T14:32:25;100625.00;;;28.40
63220;BMP180;49320;52.512;13.448;2023-09-19T14:34:52;100616.00;;;28.40
63220;BMP180;49320;52.512;13.448;2023-09-19T14:37:19;100625.00;;;28.40
63220;BMP180;49320;52.512;13.448;2023-09-19T14:39:49;100612.00;;;28.50
63220;BMP180;49320;52.512;13.448;2023-09-19T14:42:16;100619.00;;;28.50
63220;BMP180;49320;52.512;13.448;2023-09-19T14:44:44;100618.00;;;28.50
63220;BMP180;49320;52.512;13.448;2023-09-19T14:47:11;100608.00;;;28.40
63220;BMP180;49320;52.512;13.448;2023-09-19T14:49:40;100620.00;;;28.40